sensor_id;sensor_type;location;lat;lon;timestamp;pressure;altitude;pressure_sealevel;temperature;humidity
70930;BME280;58588;48.102;19.682;2023-03-22T00:02:01;99384.94;;;2.96;100.00
70930;BME280;58588;48.102;19.682;2023-03-22T00:05:04;99403.84;;;3.03;100.00
70930;BME280;58588;48.102;19.682;2023-03-22T00:08:07;99396.69;;;3.03;100.00
70930;BME280;58588;48.102;19.682;2023-03-22T00:11:10;99401.88;;;3.05;100.00
70930;BME280;58588;48.102;19.682;2023-03-22T00:14:14;99398.78;;;2.80;100.00
70930;BME280;58588;48.102;19.682;2023-03-22T00:17:16;99392.63;;;2.70;100.00
70930;BME280;58588;48.102;19.682;2023-03-22T00:20:18;99399.44;;;2.63;100.00
70930;BME280;58588;48.102;19.682;2023-03-22T00:23:23;99398.06;;;2.59;100.00
70930;BME280;58588;48.102;19.682;2023-03-22T00:26:26;99393.81;;;2.37;100.00
70930;BME280;58588;48.102;19.682;2023-03-22T00:29:29;99387.91;;;2.24;100.00
70930;BME280;58588;48.102;19.682;2023-03-22T00:32:33;99393.66;;;2.29;100.00
70930;BME280;58588;48.102;19.682;2023-03-22T00:35:35;99396.91;;;2.42;100.00
70930;BME280;58588;48.102;19.682;2023-03-22T00:38:38;99373.94;;;2.51;100.00
70930;BME280;58588;48.102;19.682;2023-03-22T00:41:40;99369.31;;;2.43;100.00
70930;BME280;58588;48.102;19.682;2023-03-22T00:44:44;99379.28;;;2.41;100.00
70930;BME280;58588;48.102;19.682;2023-03-22T00:47:46;99376.34;;;2.54;100.00
70930;BME280;58588;48.102;19.682;2023-03-22T00:50:48;99383.94;;;2.58;100.00
70930;BME280;58588;48.102;19.682;2023-03-22T00:53:50;99379.59;;;2.67;100.00
70930;BME280;58588;48.102;19.682;2023-03-22T00:56:53;99365.41;;;2.47;100.00
70930;BME280;58588;48.102;19.682;2023-03-22T00:59:56;99372.41;;;2.48;100.00
70930;BME280;58588;48.102;19.682;2023-03-22T01:02:59;99374.78;;;2.51;100.00
70930;BME280;58588;48.102;19.682;2023-03-22T01:06:04;99379.94;;;2.33;100.00
70930;BME280;58588;48.102;19.682;2023-03-22T01:09:06;99377.84;;;2.37;100.00
70930;BME280;58588;48.102;19.682;2023-03-22T01:12:15;99371.84;;;2.35;100.00
70930;BME280;58588;48.102;19.682;2023-03-22T01:15:19;99376.88;;;2.38;100.00
70930;BME280;58588;48.102;19.682;2023-03-22T01:18:22;99370.72;;;2.37;100.00
70930;BME280;58588;48.102;19.682;2023-03-22T01:21:24;99373.78;;;2.33;100.00
70930;BME280;58588;48.102;19.682;2023-03-22T01:24:27;99369.44;;;2.22;100.00
70930;BME280;58588;48.102;19.682;2023-03-22T01:27:29;99355.59;;;1.98;100.00
70930;BME280;58588;48.102;19.682;2023-03-22T01:30:33;99364.81;;;1.84;100.00
70930;BME280;58588;48.102;19.682;2023-03-22T01:33:35;99365.47;;;1.76;100.00
70930;BME280;58588;48.102;19.682;2023-03-22T01:36:37;99364.03;;;1.72;100.00
70930;BME280;58588;48.102;19.682;2023-03-22T01:39:39;99371.25;;;1.60;100.00
70930;BME280;58588;48.102;19.682;2023-03-22T01:42:41;99367.38;;;1.65;100.00
70930;BME280;58588;48.102;19.682;2023-03-22T01:45:46;99373.38;;;1.67;100.00
70930;BME280;58588;48.102;19.682;2023-03-22T01:48:52;99369.44;;;1.61;100.00
70930;BME280;58588;48.102;19.682;2023-03-22T01:51:56;99381.19;;;1.58;100.00
70930;BME280;58588;48.102;19.682;2023-03-22T01:55:03;99373.38;;;1.67;100.00
70930;BME280;58588;48.102;19.682;2023-03-22T01:58:08;99367.00;;;1.79;100.00
70930;BME280;58588;48.102;19.682;2023-03-22T02:01:12;99373.16;;;1.79;100.00
70930;BME280;58588;48.102;19.682;2023-03-22T02:04:16;99370.19;;;1.73;100.00
70930;BME280;58588;48.102;19.682;2023-03-22T02:07:20;99381.00;;;1.50;100.00
70930;BME280;58588;48.102;19.682;2023-03-22T02:10:27;99381.97;;;1.49;100.00
70930;BME280;58588;48.102;19.682;2023-03-22T02:13:38;99373.81;;;1.41;100.00
70930;BME280;58588;48.102;19.682;2023-03-22T02:16:57;99366.22;;;1.37;100.00
70930;BME280;58588;48.102;19.682;2023-03-22T02:24:12;99388.56;;;1.55;100.00
70930;BME280;58588;48.102;19.682;2023-03-22T02:31:07;99392.44;;;1.72;100.00
70930;BME280;58588;48.102;19.682;2023-03-22T02:34:58;99389.25;;;1.78;100.00
70930;BME280;58588;48.102;19.682;2023-03-22T02:38:43;99384.00;;;1.87;100.00
70930;BME280;58588;48.102;19.682;2023-03-22T02:41:59;99378.13;;;1.94;100.00
70930;BME280;58588;48.102;19.682;2023-03-22T02:45:07;99371.47;;;2.09;100.00
70930;BME280;58588;48.102;19.682;2023-03-22T02:48:15;99357.22;;;2.20;100.00
70930;BME280;58588;48.102;19.682;2023-03-22T02:51:20;99349.25;;;2.20;100.00
70930;BME280;58588;48.102;19.682;2023-03-22T02:54:27;99371.47;;;2.09;100.00
70930;BME280;58588;48.102;19.682;2023-03-22T02:57:39;99382.69;;;2.12;100.00
70930;BME280;58588;48.102;19.682;2023-03-22T03:00:42;99389.19;;;2.39;100.00
70930;BME280;58588;48.102;19.682;2023-03-22T03:03:46;99405.97;;;2.39;100.00
70930;BME280;58588;48.102;19.682;2023-03-22T03:06:50;99384.75;;;2.68;100.00
70930;BME280;58588;48.102;19.682;2023-03-22T03:09:56;99386.59;;;2.58;100.00
70930;BME280;58588;48.102;19.682;2023-03-22T03:12:58;99388.41;;;2.67;100.00
70930;BME280;58588;48.102;19.682;2023-03-22T03:16:01;99376.91;;;2.67;100.00
70930;BME280;58588;48.102;19.682;2023-03-22T03:19:11;99365.03;;;2.71;100.00
70930;BME280;58588;48.102;19.682;2023-03-22T03:22:28;99359.09;;;2.58;100.00
70930;BME280;58588;48.102;19.682;2023-03-22T03:25:37;99365.28;;;2.58;100.00
70930;BME280;58588;48.102;19.682;2023-03-22T03:28:47;99380.97;;;2.61;100.00
70930;BME280;58588;48.102;19.682;2023-03-22T03:31:54;99377.59;;;2.50;100.00
70930;BME280;58588;48.102;19.682;2023-03-22T03:35:00;99390.25;;;2.77;100.00
70930;BME280;58588;48.102;19.682;2023-03-22T03:38:07;99400.63;;;3.09;100.00
70930;BME280;58588;48.102;19.682;2023-03-22T03:41:14;99402.00;;;3.32;100.00
70930;BME280;58588;48.102;19.682;2023-03-22T03:44:17;99398.91;;;3.27;100.00
70930;BME280;58588;48.102;19.682;2023-03-22T03:47:20;99381.13;;;3.28;100.00
70930;BME280;58588;48.102;19.682;2023-03-22T03:50:24;99380.00;;;3.30;100.00
70930;BME280;58588;48.102;19.682;2023-03-22T03:53:27;99376.78;;;3.17;100.00
70930;BME280;58588;48.102;19.682;2023-03-22T03:56:30;99367.13;;;3.06;100.00
70930;BME280;58588;48.102;19.682;2023-03-22T03:59:33;99361.78;;;3.16;100.00
70930;BME280;58588;48.102;19.682;2023-03-22T04:02:35;99364.31;;;2.98;100.00
70930;BME280;58588;48.102;19.682;2023-03-22T04:05:37;99356.47;;;2.97;100.00
70930;BME280;58588;48.102;19.682;2023-03-22T04:08:39;99363.22;;;3.01;100.00
70930;BME280;58588;48.102;19.682;2023-03-22T04:11:46;99377.22;;;2.83;100.00
70930;BME280;58588;48.102;19.682;2023-03-22T04:14:48;99371.59;;;2.86;100.00
70930;BME280;58588;48.102;19.682;2023-03-22T04:17:51;99365.84;;;2.81;100.00
70930;BME280;58588;48.102;19.682;2023-03-22T04:20:54;99358.72;;;2.72;100.00
70930;BME280;58588;48.102;19.682;2023-03-22T04:23:57;99383.78;;;2.60;100.00
70930;BME280;58588;48.102;19.682;2023-03-22T04:27:00;99390.50;;;2.54;100.00
70930;BME280;58588;48.102;19.682;2023-03-22T04:30:03;99380.53;;;2.56;100.00
70930;BME280;58588;48.102;19.682;2023-03-22T04:33:05;99407.59;;;2.61;100.00
70930;BME280;58588;48.102;19.682;2023-03-22T04:36:08;99408.72;;;2.68;100.00
70930;BME280;58588;48.102;19.682;2023-03-22T04:39:11;99411.38;;;2.68;100.00
70930;BME280;58588;48.102;19.682;2023-03-22T04:42:15;99414.16;;;2.57;100.00
70930;BME280;58588;48.102;19.682;2023-03-22T04:45:17;99407.16;;;2.47;100.00
70930;BME280;58588;48.102;19.682;2023-03-22T04:48:19;99403.94;;;2.53;100.00
70930;BME280;58588;48.102;19.682;2023-03-22T04:51:21;99398.63;;;2.53;100.00
70930;BME280;58588;48.102;19.682;2023-03-22T04:54:23;99406.59;;;2.53;100.00
70930;BME280;58588;48.102;19.682;2023-03-22T04:57:27;99414.94;;;2.38;100.00
70930;BME280;58588;48.102;19.682;2023-03-22T05:00:29;99409.91;;;2.45;100.00
70930;BME280;58588;48.102;19.682;2023-03-22T05:03:31;99409.25;;;2.53;100.00
70930;BME280;58588;48.102;19.682;2023-03-22T05:06:33;99430.53;;;2.62;100.00
70930;BME280;58588;48.102;19.682;2023-03-22T05:09:36;99429.88;;;2.70;100.00
70930;BME280;58588;48.102;19.682;2023-03-22T05:12:39;99423.81;;;2.49;100.00
70930;BME280;58588;48.102;19.682;2023-03-22T05:15:41;99440.34;;;2.62;100.00
70930;BME280;58588;48.102;19.682;2023-03-22T05:18:45;99442.88;;;2.63;100.00
70930;BME280;58588;48.102;19.682;2023-03-22T05:21:47;99444.72;;;2.73;100.00
70930;BME280;58588;48.102;19.682;2023-03-22T05:24:49;99431.38;;;2.53;100.00
70930;BME280;58588;48.102;19.682;2023-03-22T05:27:53;99435.19;;;2.60;100.00
70930;BME280;58588;48.102;19.682;2023-03-22T05:30:55;99446.69;;;2.80;100.00
70930;BME280;58588;48.102;19.682;2023-03-22T05:33:57;99454.59;;;3.01;100.00
70930;BME280;58588;48.102;19.682;2023-03-22T05:36:59;99444.06;;;3.09;100.00
70930;BME280;58588;48.102;19.682;2023-03-22T05:40:01;99446.16;;;3.06;100.00
70930;BME280;58588;48.102;19.682;2023-03-22T05:43:06;99450.91;;;3.12;100.00
70930;BME280;58588;48.102;19.682;2023-03-22T05:46:10;99449.81;;;3.34;100.00
70930;BME280;58588;48.102;19.682;2023-03-22T05:49:12;99443.66;;;3.14;100.00
70930;BME280;58588;48.102;19.682;2023-03-22T05:52:14;99453.31;;;3.15;100.00
70930;BME280;58588;48.102;19.682;2023-03-22T05:55:17;99446.72;;;3.29;100.00
70930;BME280;58588;48.102;19.682;2023-03-22T05:58:20;99444.47;;;3.34;100.00
70930;BME280;58588;48.102;19.682;2023-03-22T06:01:23;99456.56;;;3.38;100.00
70930;BME280;58588;48.102;19.682;2023-03-22T06:04:25;99460.19;;;3.56;100.00
70930;BME280;58588;48.102;19.682;2023-03-22T06:07:28;99460.34;;;3.55;100.00
70930;BME280;58588;48.102;19.682;2023-03-22T06:10:30;99466.84;;;3.89;100.00
70930;BME280;58588;48.102;19.682;2023-03-22T06:13:33;99464.84;;;4.01;100.00
70930;BME280;58588;48.102;19.682;2023-03-22T06:16:35;99454.91;;;4.03;100.00
70930;BME280;58588;48.102;19.682;2023-03-22T06:19:37;99451.59;;;4.19;100.00
70930;BME280;58588;48.102;19.682;2023-03-22T06:22:39;99468.81;;;4.34;100.00
70930;BME280;58588;48.102;19.682;2023-03-22T06:25:42;99470.53;;;4.63;100.00
70930;BME280;58588;48.102;19.682;2023-03-22T06:28:45;99473.28;;;4.98;100.00
70930;BME280;58588;48.102;19.682;2023-03-22T06:31:47;99473.19;;;5.26;100.00
70930;BME280;58588;48.102;19.682;2023-03-22T06:34:50;99476.94;;;5.51;100.00
70930;BME280;58588;48.102;19.682;2023-03-22T06:37:52;99472.53;;;5.85;100.00
70930;BME280;58588;48.102;19.682;2023-03-22T06:40:54;99480.81;;;6.18;100.00
70930;BME280;58588;48.102;19.682;2023-03-22T06:43:57;99476.44;;;6.43;100.00
70930;BME280;58588;48.102;19.682;2023-03-22T06:46:59;99480.50;;;6.55;100.00
70930;BME280;58588;48.102;19.682;2023-03-22T06:50:02;99476.84;;;6.64;100.00
70930;BME280;58588;48.102;19.682;2023-03-22T06:53:04;99485.41;;;6.68;100.00
70930;BME280;58588;48.102;19.682;2023-03-22T06:56:07;99474.59;;;6.86;100.00
70930;BME280;58588;48.102;19.682;2023-03-22T06:59:10;99484.31;;;6.95;100.00
70930;BME280;58588;48.102;19.682;2023-03-22T07:02:13;99481.03;;;7.17;100.00
70930;BME280;58588;48.102;19.682;2023-03-22T07:05:15;99479.25;;;7.59;100.00
70930;BME280;58588;48.102;19.682;2023-03-22T07:08:17;99486.13;;;7.61;100.00
70930;BME280;58588;48.102;19.682;2023-03-22T07:11:19;99483.13;;;7.81;100.00
70930;BME280;58588;48.102;19.682;2023-03-22T07:14:22;99491.13;;;8.13;100.00
70930;BME280;58588;48.102;19.682;2023-03-22T07:17:24;99493.97;;;8.28;100.00
70930;BME280;58588;48.102;19.682;2023-03-22T07:20:27;99488.63;;;8.75;100.00
70930;BME280;58588;48.102;19.682;2023-03-22T07:23:29;99489.19;;;9.02;100.00
70930;BME280;58588;48.102;19.682;2023-03-22T07:26:31;99476.81;;;9.24;100.00
70930;BME280;58588;48.102;19.682;2023-03-22T07:29:34;99479.97;;;9.73;100.00
70930;BME280;58588;48.102;19.682;2023-03-22T07:32:38;99481.03;;;9.87;100.00
70930;BME280;58588;48.102;19.682;2023-03-22T07:35:41;99474.78;;;10.09;100.00
70930;BME280;58588;48.102;19.682;2023-03-22T07:38:43;99477.34;;;10.40;100.00
70930;BME280;58588;48.102;19.682;2023-03-22T07:41:45;99480.31;;;10.45;100.00
70930;BME280;58588;48.102;19.682;2023-03-22T07:44:48;99480.59;;;10.65;100.00
70930;BME280;58588;48.102;19.682;2023-03-22T07:47:50;99472.75;;;10.85;100.00
70930;BME280;58588;48.102;19.682;2023-03-22T07:50:54;99475.56;;;10.92;100.00
70930;BME280;58588;48.102;19.682;2023-03-22T07:53:56;99475.22;;;11.16;100.00
70930;BME280;58588;48.102;19.682;2023-03-22T07:56:59;99465.66;;;11.35;100.00
70930;BME280;58588;48.102;19.682;2023-03-22T08:00:03;99459.03;;;11.16;100.00
70930;BME280;58588;48.102;19.682;2023-03-22T08:03:06;99467.28;;;11.30;100.00
70930;BME280;58588;48.102;19.682;2023-03-22T08:06:08;99464.50;;;11.23;100.00
70930;BME280;58588;48.102;19.682;2023-03-22T08:09:12;99469.56;;;11.33;100.00
70930;BME280;58588;48.102;19.682;2023-03-22T08:12:14;99459.38;;;11.49;100.00
70930;BME280;58588;48.102;19.682;2023-03-22T08:15:17;99464.50;;;11.66;100.00
70930;BME280;58588;48.102;19.682;2023-03-22T08:18:19;99463.50;;;11.88;100.00
70930;BME280;58588;48.102;19.682;2023-03-22T08:21:21;99468.31;;;11.93;100.00
70930;BME280;58588;48.102;19.682;2023-03-22T08:24:24;99464.59;;;11.94;100.00
70930;BME280;58588;48.102;19.682;2023-03-22T08:27:26;99456.78;;;12.05;100.00
70930;BME280;58588;48.102;19.682;2023-03-22T08:30:29;99463.25;;;12.39;100.00
70930;BME280;58588;48.102;19.682;2023-03-22T08:33:32;99462.78;;;12.70;100.00
70930;BME280;58588;48.102;19.682;2023-03-22T08:36:35;99458.75;;;13.01;95.63
70930;BME280;58588;48.102;19.682;2023-03-22T08:39:38;99455.22;;;13.68;100.00
70930;BME280;58588;48.102;19.682;2023-03-22T08:42:40;99452.91;;;14.25;89.74
70930;BME280;58588;48.102;19.682;2023-03-22T08:45:43;99449.31;;;14.64;82.27
70930;BME280;58588;48.102;19.682;2023-03-22T08:48:47;99455.53;;;14.78;84.94
70930;BME280;58588;48.102;19.682;2023-03-22T08:51:50;99449.91;;;15.24;85.46
70930;BME280;58588;48.102;19.682;2023-03-22T08:54:52;99449.78;;;15.44;78.74
70930;BME280;58588;48.102;19.682;2023-03-22T08:57:55;99449.69;;;15.57;72.95
70930;BME280;58588;48.102;19.682;2023-03-22T09:00:59;99452.47;;;15.82;73.18
70930;BME280;58588;48.102;19.682;2023-03-22T09:04:02;99449.75;;;16.07;75.99
70930;BME280;58588;48.102;19.682;2023-03-22T09:07:04;99456.59;;;16.16;77.12
70930;BME280;58588;48.102;19.682;2023-03-22T09:10:07;99459.56;;;16.33;75.12
70930;BME280;58588;48.102;19.682;2023-03-22T09:13:09;99454.28;;;16.38;68.22
70930;BME280;58588;48.102;19.682;2023-03-22T09:16:14;99459.00;;;16.68;67.87
70930;BME280;58588;48.102;19.682;2023-03-22T09:19:16;99458.13;;;16.30;65.83
70930;BME280;58588;48.102;19.682;2023-03-22T09:22:18;99454.56;;;16.30;67.96
70930;BME280;58588;48.102;19.682;2023-03-22T09:25:20;99454.97;;;16.52;64.74
70930;BME280;58588;48.102;19.682;2023-03-22T09:28:22;99456.03;;;16.32;66.91
70930;BME280;58588;48.102;19.682;2023-03-22T09:31:26;99454.25;;;16.20;67.54
70930;BME280;58588;48.102;19.682;2023-03-22T09:34:28;99449.56;;;15.84;67.57
70930;BME280;58588;48.102;19.682;2023-03-22T09:37:31;99443.38;;;15.95;69.04
70930;BME280;58588;48.102;19.682;2023-03-22T09:40:34;99446.72;;;15.97;65.89
70930;BME280;58588;48.102;19.682;2023-03-22T09:43:40;99448.81;;;15.95;66.52
70930;BME280;58588;48.102;19.682;2023-03-22T09:46:47;99439.06;;;16.30;65.27
70930;BME280;58588;48.102;19.682;2023-03-22T09:49:52;99433.44;;;16.32;64.84
70930;BME280;58588;48.102;19.682;2023-03-22T09:52:59;99438.44;;;16.10;62.45
70930;BME280;58588;48.102;19.682;2023-03-22T09:56:04;99436.97;;;16.32;62.99
70930;BME280;58588;48.102;19.682;2023-03-22T09:59:13;99432.50;;;16.81;61.72
70930;BME280;58588;48.102;19.682;2023-03-22T10:02:37;99416.03;;;16.33;60.62
70930;BME280;58588;48.102;19.682;2023-03-22T10:05:45;99424.91;;;16.83;62.92
70930;BME280;58588;48.102;19.682;2023-03-22T10:08:56;99427.03;;;16.81;60.75
70930;BME280;58588;48.102;19.682;2023-03-22T10:12:06;99422.59;;;17.17;57.44
70930;BME280;58588;48.102;19.682;2023-03-22T10:15:13;99422.13;;;17.20;60.00
70930;BME280;58588;48.102;19.682;2023-03-22T10:18:20;99424.81;;;17.38;56.58
70930;BME280;58588;48.102;19.682;2023-03-22T10:21:25;99422.22;;;17.44;56.25
70930;BME280;58588;48.102;19.682;2023-03-22T10:24:29;99419.03;;;17.47;57.61
70930;BME280;58588;48.102;19.682;2023-03-22T10:27:33;99417.38;;;17.76;56.85
70930;BME280;58588;48.102;19.682;2023-03-22T10:30:36;99420.56;;;18.55;54.81
70930;BME280;58588;48.102;19.682;2023-03-22T10:33:45;99414.28;;;18.78;52.16
70930;BME280;58588;48.102;19.682;2023-03-22T10:36:54;99410.97;;;19.33;57.83
70930;BME280;58588;48.102;19.682;2023-03-22T10:40:00;99406.34;;;19.05;51.81
70930;BME280;58588;48.102;19.682;2023-03-22T10:43:15;99407.16;;;19.79;49.27
70930;BME280;58588;48.102;19.682;2023-03-22T10:46:24;99395.31;;;19.90;45.12
70930;BME280;58588;48.102;19.682;2023-03-22T10:49:31;99397.81;;;19.92;44.87
70930;BME280;58588;48.102;19.682;2023-03-22T10:52:41;99397.28;;;20.45;48.56
70930;BME280;58588;48.102;19.682;2023-03-22T10:55:45;99388.16;;;20.23;50.56
70930;BME280;58588;48.102;19.682;2023-03-22T10:58:48;99383.09;;;20.70;51.48
70930;BME280;58588;48.102;19.682;2023-03-22T11:01:50;99389.34;;;20.88;46.21
70930;BME280;58588;48.102;19.682;2023-03-22T11:04:58;99372.38;;;21.40;45.52
70930;BME280;58588;48.102;19.682;2023-03-22T11:08:01;99367.09;;;21.60;45.83
70930;BME280;58588;48.102;19.682;2023-03-22T11:11:05;99366.38;;;21.43;45.95
70930;BME280;58588;48.102;19.682;2023-03-22T11:14:13;99360.22;;;21.30;45.42
70930;BME280;58588;48.102;19.682;2023-03-22T11:17:18;99352.50;;;20.78;47.88
70930;BME280;58588;48.102;19.682;2023-03-22T11:20:23;99359.22;;;20.93;45.72
70930;BME280;58588;48.102;19.682;2023-03-22T11:23:25;99346.44;;;21.25;43.38
70930;BME280;58588;48.102;19.682;2023-03-22T11:26:31;99347.78;;;20.74;44.86
70930;BME280;58588;48.102;19.682;2023-03-22T11:29:42;99351.41;;;19.80;47.00
70930;BME280;58588;48.102;19.682;2023-03-22T11:32:45;99342.19;;;19.24;48.23
70930;BME280;58588;48.102;19.682;2023-03-22T11:35:54;99345.63;;;19.48;48.12
70930;BME280;58588;48.102;19.682;2023-03-22T11:38:58;99339.88;;;18.87;49.03
70930;BME280;58588;48.102;19.682;2023-03-22T11:42:01;99333.00;;;19.30;48.83
70930;BME280;58588;48.102;19.682;2023-03-22T11:45:06;99341.78;;;18.87;49.87
70930;BME280;58588;48.102;19.682;2023-03-22T11:48:13;99337.94;;;18.59;50.13
70930;BME280;58588;48.102;19.682;2023-03-22T11:51:24;99328.38;;;18.85;49.51
70930;BME280;58588;48.102;19.682;2023-03-22T11:54:29;99342.03;;;18.85;50.62
70930;BME280;58588;48.102;19.682;2023-03-22T11:57:33;99330.28;;;18.85;51.37
70930;BME280;58588;48.102;19.682;2023-03-22T12:00:38;99321.63;;;19.05;51.28
70930;BME280;58588;48.102;19.682;2023-03-22T12:03:43;99324.66;;;19.37;50.77
70930;BME280;58588;48.102;19.682;2023-03-22T12:06:48;99326.31;;;18.92;50.75
70930;BME280;58588;48.102;19.682;2023-03-22T12:09:57;99328.69;;;19.17;51.90
70930;BME280;58588;48.102;19.682;2023-03-22T12:13:06;99329.72;;;19.45;51.36
70930;BME280;58588;48.102;19.682;2023-03-22T12:16:13;99328.63;;;18.84;50.30
70930;BME280;58588;48.102;19.682;2023-03-22T12:19:22;99327.84;;;18.60;50.74
70930;BME280;58588;48.102;19.682;2023-03-22T12:22:31;99328.78;;;18.65;51.74
70930;BME280;58588;48.102;19.682;2023-03-22T12:25:35;99329.25;;;18.74;52.06
70930;BME280;58588;48.102;19.682;2023-03-22T12:28:41;99329.44;;;18.44;51.46
70930;BME280;58588;48.102;19.682;2023-03-22T12:31:52;99322.75;;;18.52;52.08
70930;BME280;58588;48.102;19.682;2023-03-22T12:34:58;99327.34;;;18.11;52.76
70930;BME280;58588;48.102;19.682;2023-03-22T12:38:09;99328.91;;;18.18;52.44
70930;BME280;58588;48.102;19.682;2023-03-22T12:41:15;99328.66;;;17.97;52.53
70930;BME280;58588;48.102;19.682;2023-03-22T12:44:24;99334.63;;;17.94;52.92
70930;BME280;58588;48.102;19.682;2023-03-22T12:47:30;99337.47;;;17.75;52.76
70930;BME280;58588;48.102;19.682;2023-03-22T12:50:36;99336.22;;;17.71;52.93
70930;BME280;58588;48.102;19.682;2023-03-22T12:53:43;99327.47;;;17.57;53.00
70930;BME280;58588;48.102;19.682;2023-03-22T12:56:47;99330.06;;;17.64;54.99
70930;BME280;58588;48.102;19.682;2023-03-22T12:59:53;99332.94;;;17.81;54.15
70930;BME280;58588;48.102;19.682;2023-03-22T13:02:58;99331.03;;;17.70;54.48
70930;BME280;58588;48.102;19.682;2023-03-22T13:06:04;99322.50;;;17.78;53.51
70930;BME280;58588;48.102;19.682;2023-03-22T13:09:13;99320.91;;;17.35;52.94
70930;BME280;58588;48.102;19.682;2023-03-22T13:12:28;99321.03;;;17.40;53.37
70930;BME280;58588;48.102;19.682;2023-03-22T13:15:33;99323.88;;;17.33;53.50
70930;BME280;58588;48.102;19.682;2023-03-22T13:18:56;99327.63;;;17.32;54.21
70930;BME280;58588;48.102;19.682;2023-03-22T13:22:26;99316.28;;;17.47;52.83
70930;BME280;58588;48.102;19.682;2023-03-22T13:25:33;99313.81;;;17.57;52.87
70930;BME280;58588;48.102;19.682;2023-03-22T13:28:36;99308.94;;;17.48;53.57
70930;BME280;58588;48.102;19.682;2023-03-22T13:31:42;99293.59;;;17.77;53.13
70930;BME280;58588;48.102;19.682;2023-03-22T13:34:47;99301.50;;;17.66;53.15
70930;BME280;58588;48.102;19.682;2023-03-22T13:37:50;99304.19;;;17.43;53.09
70930;BME280;58588;48.102;19.682;2023-03-22T13:40:59;99295.03;;;17.26;52.72
70930;BME280;58588;48.102;19.682;2023-03-22T13:44:19;99299.31;;;17.45;53.41
70930;BME280;58588;48.102;19.682;2023-03-22T13:47:31;99283.84;;;17.46;53.22
70930;BME280;58588;48.102;19.682;2023-03-22T13:50:33;99291.78;;;17.59;54.93
70930;BME280;58588;48.102;19.682;2023-03-22T13:53:37;99287.75;;;17.73;55.96
70930;BME280;58588;48.102;19.682;2023-03-22T13:56:50;99287.16;;;17.59;55.38
70930;BME280;58588;48.102;19.682;2023-03-22T14:00:01;99300.06;;;17.41;55.51
70930;BME280;58588;48.102;19.682;2023-03-22T14:03:14;99292.84;;;17.46;55.43
70930;BME280;58588;48.102;19.682;2023-03-22T14:06:21;99289.47;;;17.32;55.16
70930;BME280;58588;48.102;19.682;2023-03-22T14:09:27;99285.22;;;17.25;55.58
70930;BME280;58588;48.102;19.682;2023-03-22T14:12:46;99286.16;;;17.30;55.71
70930;BME280;58588;48.102;19.682;2023-03-22T14:15:52;99289.13;;;17.17;54.95
70930;BME280;58588;48.102;19.682;2023-03-22T14:18:55;99284.28;;;17.43;55.50
70930;BME280;58588;48.102;19.682;2023-03-22T14:22:00;99286.19;;;17.42;55.01
70930;BME280;58588;48.102;19.682;2023-03-22T14:25:05;99283.06;;;17.27;53.99
70930;BME280;58588;48.102;19.682;2023-03-22T14:28:17;99276.69;;;17.33;53.63
70930;BME280;58588;48.102;19.682;2023-03-22T14:31:23;99292.59;;;17.48;53.58
70930;BME280;58588;48.102;19.682;2023-03-22T14:34:28;99279.06;;;17.29;54.46
70930;BME280;58588;48.102;19.682;2023-03-22T14:37:34;99274.06;;;17.26;52.70
70930;BME280;58588;48.102;19.682;2023-03-22T14:40:37;99272.53;;;17.30;53.20
70930;BME280;58588;48.102;19.682;2023-03-22T14:43:42;99276.59;;;17.28;52.50
70930;BME280;58588;48.102;19.682;2023-03-22T14:46:45;99274.53;;;17.11;53.58
70930;BME280;58588;48.102;19.682;2023-03-22T14:49:49;99275.84;;;17.21;54.59
70930;BME280;58588;48.102;19.682;2023-03-22T14:52:52;99263.97;;;17.15;54.76
70930;BME280;58588;48.102;19.682;2023-03-22T14:55:54;99265.78;;;17.09;54.97
70930;BME280;58588;48.102;19.682;2023-03-22T14:59:00;99254.47;;;16.94;55.25
70930;BME280;58588;48.102;19.682;2023-03-22T15:02:12;99260.88;;;17.00;55.16
70930;BME280;58588;48.102;19.682;2023-03-22T15:05:20;99252.38;;;17.08;54.44
70930;BME280;58588;48.102;19.682;2023-03-22T15:08:25;99255.47;;;17.11;54.69
70930;BME280;58588;48.102;19.682;2023-03-22T15:11:27;99248.94;;;17.01;54.35
70930;BME280;58588;48.102;19.682;2023-03-22T15:14:34;99256.16;;;17.07;54.56
70930;BME280;58588;48.102;19.682;2023-03-22T15:17:37;99240.03;;;16.94;54.74
70930;BME280;58588;48.102;19.682;2023-03-22T15:20:41;99245.84;;;16.97;55.08
70930;BME280;58588;48.102;19.682;2023-03-22T15:23:50;99241.22;;;16.86;55.64
70930;BME280;58588;48.102;19.682;2023-03-22T15:26:52;99239.44;;;16.92;56.05
70930;BME280;58588;48.102;19.682;2023-03-22T15:29:57;99248.44;;;16.92;55.43
70930;BME280;58588;48.102;19.682;2023-03-22T15:33:03;99243.56;;;16.82;55.44
70930;BME280;58588;48.102;19.682;2023-03-22T15:36:06;99236.81;;;16.85;55.37
70930;BME280;58588;48.102;19.682;2023-03-22T15:39:17;99233.34;;;16.78;55.71
70930;BME280;58588;48.102;19.682;2023-03-22T15:42:25;99230.53;;;16.84;55.94
70930;BME280;58588;48.102;19.682;2023-03-22T15:45:29;99232.91;;;16.81;56.29
70930;BME280;58588;48.102;19.682;2023-03-22T15:48:40;99230.66;;;16.90;55.95
70930;BME280;58588;48.102;19.682;2023-03-22T15:51:42;99232.66;;;16.82;56.67
70930;BME280;58588;48.102;19.682;2023-03-22T15:54:46;99222.47;;;16.78;56.54
70930;BME280;58588;48.102;19.682;2023-03-22T15:57:56;99227.78;;;16.73;56.04
70930;BME280;58588;48.102;19.682;2023-03-22T16:01:13;99237.91;;;16.66;56.24
70930;BME280;58588;48.102;19.682;2023-03-22T16:04:18;99240.94;;;16.76;56.69
70930;BME280;58588;48.102;19.682;2023-03-22T16:07:20;99239.06;;;16.58;57.29
70930;BME280;58588;48.102;19.682;2023-03-22T16:10:24;99245.63;;;16.69;58.33
70930;BME280;58588;48.102;19.682;2023-03-22T16:13:27;99248.44;;;16.62;58.27
70930;BME280;58588;48.102;19.682;2023-03-22T16:16:30;99238.47;;;16.56;58.33